GCHI/VDE METAR and TAF weather

Enter ICAO airport designator
Station Type Date Time Source
GCHI METAR 2020/03/31 23:00 UTC NOAA

GCHI 312300Z AUTO 36010KT 9999 BKN030 19/14 Q1017


Station Type Date Time Source
GCHI Decoded METAR 2020/03/31 23:00 UTC NOAA

Hierro / Aeropuerto, Spain (GCHI) 27-49N 017-53W 32M
Mar 31, 2020 - 07:00 PM EDT / 2020.03.31 2300 UTC
Wind: from the N (360 degrees) at 12 MPH (10 KT):0
Visibility: greater than 7 mile(s):0
Sky conditions: mostly cloudy
Temperature: 66 F (19 C)
Dew Point: 57 F (14 C)
Relative Humidity: 72%
Pressure (altimeter): 30.03 in. Hg (1017 hPa)
ob: GCHI 312300Z AUTO 36010KT 9999 BKN030 19/14 Q1017
cycle: 23

Station Type Date Time Source
GCHI TAF 2020/03/31 21:00 UTC NOAA

TAF GCHI 312000Z 3121/0121 33010KT 9999 SCT030 TX23/0113Z TN18/0106Z
BECMG 0109/0111 12005KT

Example: see airport list